Météo Nord-Pas-de-Calais   La météo au plus près de chez vous

Station météorologique

Observations météo à Nimes-Garons (30258)

30258001 94 m Dernier relevé à 13:18
30.8°C
Humidité 43 % Vent 10.8 km/h 1018.1 hPa

Journée consultée

Lundi 31 Août 2026

Synthèse de la journée

Périodes de référence en UTC

Température maximale

31.6°C

à 13:12

06h 06h

Température minimale

18°C

à 06:06

18h 18h

Rafale maximale

26 km/h

à 11:00

00h 00h

Précipitations

0 mm

Cumul quotidien

06h 06h

Graphiques de la journée

Heure locale Réduire

Données détaillées

Relevés météo

Pas de 6 minutes Afficher les relevés infra-horaires
Relevés météo détaillés à Nimes-Garons pour le Lundi 31 Août 2026
Heure Température °C Point de rosée °C Humidité % Vent moyen (raf.), km/h Précipitations mm Visibilité m Pression hPa Nébulosité Octas
13:18 30.8 °C 15.2 °C 39 % 8 km/h (16 km/h) 0 mm0 mm 60000 m 1017.7 hPa
13:12 31.6 °C 16 °C 39 % 8 km/h (16 km/h) 0 mm0 mm 19700 m 1017.8 hPa
13:06 30.6 °C 15.5 °C 40 % 12 km/h (20 km/h) 0 mm0 mm 60000 m 1017.9 hPa
13:00 30.7 °C 15.2 °C 39 % 10 km/h (20 km/h) 0 mm0 mm 60000 m 1017.8 hPa
12:54 31.1 °C 15.5 °C 39 % 8 km/h (16 km/h) 0 mm0 mm 60000 m 1018 hPa
12:48 30.4 °C 15.7 °C 41 % 10 km/h (19 km/h) 0 mm0 mm 60000 m 1018.1 hPa
12:42 30.3 °C 15.6 °C 41 % 13 km/h (22 km/h) 0 mm0 mm 60000 m 1018 hPa
12:36 30.6 °C 15.8 °C 41 % 8 km/h (22 km/h) 0 mm0 mm 60000 m 1018.1 hPa
12:30 30.2 °C 15.9 °C 42 % 7 km/h (20 km/h) 0 mm0 mm 60000 m 1018.1 hPa
12:24 30 °C 16.1 °C 43 % 9 km/h (20 km/h) 0 mm0 mm 60000 m 1018.1 hPa
12:18 29.7 °C 15.8 °C 43 % 11 km/h (22 km/h) 0 mm0 mm 60000 m 1018.1 hPa
12:12 29.7 °C 15.8 °C 43 % 10 km/h (22 km/h) 0 mm0 mm 60000 m 1018.2 hPa
12:06 29.5 °C 16 °C 44 % 9 km/h (18 km/h) 0 mm0 mm 60000 m 1018.2 hPa
12:00 30 °C 16.4 °C 44 % 9 km/h (20 km/h) 0 mm0 mm 60000 m 1018.3 hPa
11:54 29.5 °C 16.3 °C 45 % 13 km/h (20 km/h) 0 mm0 mm 60000 m 1018.3 hPa
11:48 29.6 °C 16.4 °C 45 % 13 km/h (22 km/h) 0 mm0 mm 60000 m 1018.3 hPa
11:42 28.9 °C 16.1 °C 46 % 14 km/h (22 km/h) 0 mm0 mm 60000 m 1018.3 hPa
11:36 28.8 °C 16 °C 46 % 14 km/h (24 km/h) 0 mm0 mm 60000 m 1018.3 hPa
11:30 28.9 °C 16.1 °C 46 % 15 km/h (24 km/h) 0 mm0 mm 60000 m 1018.3 hPa
11:24 29.2 °C 16 °C 45 % 15 km/h (24 km/h) 0 mm0 mm 60000 m 1018.3 hPa
11:18 28.8 °C 16.4 °C 47 % 15 km/h (24 km/h) 0 mm0 mm 60000 m 1018.3 hPa
11:12 28.5 °C 16.4 °C 48 % 17 km/h (22 km/h) 0 mm0 mm 60000 m 1018.2 hPa
11:06 28.2 °C 16.1 °C 48 % 18 km/h (26 km/h) 0 mm0 mm 60000 m 1018.2 hPa
11:00 28.4 °C 16.3 °C 48 % 18 km/h (26 km/h) 0 mm0 mm 60000 m 1018.2 hPa
10:54 28 °C 16.3 °C 49 % 17 km/h (26 km/h) 0 mm0 mm 60000 m 1018.3 hPa
10:48 28 °C 16.6 °C 50 % 14 km/h (26 km/h) 0 mm0 mm 60000 m 1018.3 hPa
10:42 27.9 °C 17.4 °C 53 % 15 km/h (23 km/h) 0 mm0 mm 60000 m 1018.2 hPa
10:36 27.1 °C 16.7 °C 53 % 17 km/h (23 km/h) 0 mm0 mm 60000 m 1018.2 hPa
10:30 27.1 °C 17 °C 54 % 15 km/h (22 km/h) 0 mm0 mm 60000 m 1018.2 hPa
10:24 27.2 °C 17.1 °C 54 % 15 km/h (23 km/h) 0 mm0 mm 60000 m 1018.1 hPa
10:18 26.9 °C 16.8 °C 54 % 17 km/h (23 km/h) 0 mm0 mm 60000 m 1018.1 hPa
10:12 26.8 °C 16.7 °C 54 % 17 km/h (24 km/h) 0 mm0 mm 60000 m 1018.1 hPa
10:06 26.5 °C 16.7 °C 55 % 17 km/h (24 km/h) 0 mm0 mm 60000 m 1018 hPa
10:00 26.4 °C 16.6 °C 55 % 15 km/h (23 km/h) 0 mm0 mm 60000 m 1017.9 hPa
09:54 26.3 °C 16.8 °C 56 % 15 km/h (24 km/h) 0 mm0 mm 60000 m 1017.9 hPa
09:48 26.2 °C 17.3 °C 58 % 14 km/h (20 km/h) 0 mm0 mm 60000 m 1017.8 hPa
09:42 25.7 °C 17.1 °C 59 % 14 km/h (20 km/h) 0 mm0 mm 60000 m 1017.8 hPa
09:36 25.3 °C 16.7 °C 59 % 14 km/h (20 km/h) 0 mm0 mm 60000 m 1017.9 hPa
09:30 25.2 °C 16.9 °C 60 % 13 km/h (20 km/h) 0 mm0 mm 60000 m 1017.8 hPa
09:24 25 °C 17 °C 61 % 12 km/h (16 km/h) 0 mm0 mm 60000 m 1017.7 hPa
09:18 24.6 °C 17.3 °C 64 % 12 km/h (18 km/h) 0 mm0 mm 60000 m 1017.7 hPa
09:12 24.1 °C 16.9 °C 64 % 12 km/h (18 km/h) 0 mm0 mm 60000 m 1017.6 hPa
09:06 24.1 °C 16.6 °C 63 % 12 km/h (17 km/h) 0 mm0 mm 60000 m 1017.6 hPa
09:00 23.8 °C 16.3 °C 63 % 13 km/h (18 km/h) 0 mm0 mm 60000 m 1017.6 hPa 6 Octas
08:54 23.8 °C 16.6 °C 64 % 13 km/h (18 km/h) 0 mm0 mm 60000 m 1017.5 hPa
08:48 23.4 °C 16.4 °C 65 % 12 km/h (16 km/h) 0 mm0 mm 60000 m 1017.4 hPa
08:42 23.3 °C 16.3 °C 65 % 11 km/h (15 km/h) 0 mm0 mm 60000 m 1017.4 hPa
08:36 23.1 °C 16.4 °C 66 % 9 km/h (15 km/h) 0 mm0 mm 60000 m 1017.5 hPa
08:30 23 °C 16.5 °C 67 % 8 km/h (12 km/h) 0 mm0 mm 60000 m 1017.6 hPa
08:24 22.6 °C 16.8 °C 70 % 7 km/h (10 km/h) 0 mm0 mm 60000 m 1017.7 hPa
08:18 22.6 °C 16.6 °C 69 % 5 km/h (9 km/h) 0 mm0 mm 60000 m 1017.6 hPa
08:12 22.7 °C 16.7 °C 69 % 3 km/h (5 km/h) 0 mm0 mm 60000 m 1017.6 hPa
08:06 22.6 °C 16.8 °C 70 % 2 km/h (7 km/h) 0 mm0 mm 60000 m 1017.5 hPa
08:00 21.9 °C 16.6 °C 72 % 4 km/h (9 km/h) 0 mm0 mm 60000 m 1017.4 hPa
07:54 21.4 °C 16.1 °C 72 % 6 km/h (9 km/h) 0 mm0 mm 60000 m 1017.4 hPa
07:48 21 °C 16.2 °C 74 % 7 km/h (10 km/h) 0 mm0 mm 60000 m 1017.4 hPa
07:42 20.7 °C 16.1 °C 75 % 8 km/h (11 km/h) 0 mm0 mm 60000 m 1017.3 hPa
07:36 20.5 °C 15.9 °C 75 % 8 km/h (13 km/h) 0 mm0 mm 60000 m 1017.2 hPa
07:30 20.3 °C 15.9 °C 76 % 9 km/h (13 km/h) 0 mm0 mm 60000 m 1017.2 hPa
07:24 20 °C 16 °C 78 % 8 km/h (12 km/h) 0 mm0 mm 60000 m 1017.1 hPa
07:18 19.8 °C 16.1 °C 79 % 9 km/h (12 km/h) 0 mm0 mm 60000 m 1017.1 hPa
07:12 19.6 °C 16.4 °C 82 % 9 km/h (13 km/h) 0 mm0 mm 60000 m 1017.1 hPa
07:06 19.5 °C 16.5 °C 83 % 8 km/h (12 km/h) 0 mm0 mm 60000 m 1017.1 hPa
07:00 19.3 °C 16.9 °C 86 % 8 km/h (11 km/h) 0 mm0 mm 60000 m 1017.1 hPa
06:54 19.1 °C 16.9 °C 87 % 7 km/h (10 km/h) 0 mm0 mm 60000 m 1017.1 hPa
06:48 19.1 °C 17.2 °C 89 % 7 km/h (9 km/h) 0 mm0 mm 60000 m 1017.1 hPa
06:42 18.8 °C 17.3 °C 91 % 6 km/h (9 km/h) 0 mm0 mm 19770 m 1017 hPa
06:36 18.6 °C 17.3 °C 92 % 5 km/h (8 km/h) 0 mm0 mm 60000 m 1016.9 hPa
06:30 18.5 °C 17.2 °C 92 % 5 km/h (7 km/h) 0 mm0 mm 60000 m 1017 hPa
06:24 18.5 °C 17.2 °C 92 % 8 km/h (13 km/h) 0 mm0 mm 60000 m 1017 hPa
06:18 18.7 °C 17.4 °C 92 % 11 km/h (14 km/h) 0 mm0 mm 60000 m 1017.2 hPa
06:12 18.6 °C 17.6 °C 94 % 9 km/h (14 km/h) 0 mm0 mm 60000 m 1017.1 hPa
06:06 18 °C 16.8 °C 93 % 6 km/h (8 km/h) 0 mm0 mm 60000 m 1017.1 hPa
06:00 18.1 °C 16.6 °C 91 % 6 km/h (7 km/h) 0 mm0 mm 60000 m 1017 hPa
05:54 18.8 °C 17.5 °C 92 % 5 km/h (7 km/h) 0 mm0 mm 60000 m 1017.1 hPa
05:48 18.7 °C 17.4 °C 92 % 4 km/h (5 km/h) 0 mm0 mm 60000 m 1017.1 hPa
05:42 18.6 °C 17.1 °C 91 % 2 km/h (3 km/h) 0 mm0 mm 60000 m 1017.1 hPa
05:36 18.9 °C 17.4 °C 91 % 2 km/h (3 km/h) 0 mm0 mm 60000 m 1017 hPa
05:30 18.9 °C 17.4 °C 91 % 3 km/h (4 km/h) 0 mm0 mm 60000 m 1017 hPa
05:24 19.1 °C 17.6 °C 91 % 3 km/h (4 km/h) 0 mm0 mm 60000 m 1017 hPa
05:18 19.2 °C 17.9 °C 92 % 0 km/h (3 km/h) 0 mm0 mm 60000 m 1016.9 hPa
05:12 19.2 °C 17.9 °C 92 % 0 km/h (3 km/h) 0 mm0 mm 60000 m 1016.9 hPa
05:06 19.1 °C 17.8 °C 92 % 3 km/h (4 km/h) 0 mm0 mm 60000 m 1016.9 hPa
05:00 19.1 °C 17.8 °C 92 % 4 km/h (6 km/h) 0 mm0 mm 60000 m 1016.9 hPa
04:54 19.2 °C 17.9 °C 92 % 6 km/h (7 km/h) 0 mm0 mm 60000 m 1016.9 hPa
04:48 19 °C 17.7 °C 92 % 6 km/h (7 km/h) 0 mm0 mm 60000 m 1016.9 hPa
04:42 18.9 °C 17.4 °C 91 % 5 km/h (7 km/h) 0 mm0 mm 60000 m 1016.9 hPa
04:36 19.2 °C 17.7 °C 91 % 4 km/h (5 km/h) 0 mm0 mm 60000 m 1016.9 hPa
04:30 19.1 °C 17.6 °C 91 % 3 km/h (4 km/h) 0 mm0 mm 60000 m 1017 hPa
04:24 19.2 °C 17.5 °C 90 % 4 km/h (6 km/h) 0 mm0 mm 60000 m 1017 hPa
04:18 19.2 °C 17.5 °C 90 % 5 km/h (6 km/h) 0 mm0 mm 60000 m 1017 hPa
04:12 19.5 °C 17.8 °C 90 % 4 km/h (6 km/h) 0 mm0 mm 60000 m 1016.9 hPa
04:06 19.5 °C 17.8 °C 90 % 4 km/h (5 km/h) 0 mm0 mm 60000 m 1016.9 hPa
04:00 19.6 °C 17.9 °C 90 % 5 km/h (6 km/h) 0 mm0 mm 60000 m 1017 hPa 7 Octas
03:54 19.6 °C 18.1 °C 91 % 5 km/h (6 km/h) 0 mm0 mm 60000 m 1017 hPa
03:48 19.5 °C 18 °C 91 % 5 km/h (7 km/h) 0 mm0 mm 60000 m 1016.9 hPa
03:42 19.5 °C 18 °C 91 % 5 km/h (7 km/h) 0 mm0 mm 60000 m 1016.9 hPa
03:36 19.5 °C 18 °C 91 % 6 km/h (8 km/h) 0 mm0 mm 60000 m 1017 hPa
03:30 19.4 °C 18.1 °C 92 % 5 km/h (8 km/h) 0 mm0 mm 60000 m 1017 hPa
03:24 19.3 °C 17.8 °C 91 % 4 km/h (6 km/h) 0 mm0 mm 60000 m 1016.8 hPa
03:18 19.4 °C 17.9 °C 91 % 4 km/h (6 km/h) 0 mm0 mm 60000 m 1016.9 hPa
03:12 19.5 °C 18 °C 91 % 5 km/h (6 km/h) 0 mm0 mm 60000 m 1016.8 hPa
03:06 19.6 °C 17.9 °C 90 % 4 km/h (6 km/h) 0 mm0 mm 60000 m 1016.8 hPa
03:00 19.8 °C 17.9 °C 89 % 3 km/h (6 km/h) 0 mm0 mm 19300 m 1016.7 hPa
02:54 20.2 °C 18.1 °C 88 % 5 km/h (7 km/h) 0 mm0 mm 19300 m 1016.5 hPa
02:48 20.3 °C 18.2 °C 88 % 7 km/h (9 km/h) 0 mm0 mm 60000 m 1016.5 hPa
02:42 20.4 °C 18.3 °C 88 % 8 km/h (9 km/h) 0 mm0 mm 60000 m 1016.5 hPa
02:36 20.5 °C 18.4 °C 88 % 6 km/h (8 km/h) 0 mm0 mm 60000 m 1016.6 hPa
02:30 20.5 °C 18.4 °C 88 % 5 km/h (7 km/h) 0 mm0 mm 60000 m 1016.6 hPa
02:24 20.3 °C 18.1 °C 87 % 4 km/h (5 km/h) 0 mm0 mm 60000 m 1016.5 hPa
02:18 20.4 °C 18.2 °C 87 % 4 km/h (5 km/h) 0 mm0 mm 60000 m 1016.5 hPa
02:12 20.4 °C 18.3 °C 88 % 4 km/h (5 km/h) 0 mm0 mm 60000 m 1016.6 hPa
02:06 20.2 °C 18 °C 87 % 4 km/h (7 km/h) 0 mm0 mm 60000 m 1016.6 hPa
02:00 20.2 °C 18 °C 87 % 7 km/h (10 km/h) 0 mm0 mm 60000 m 1016.6 hPa
01:54 20.3 °C 18.1 °C 87 % 6 km/h (10 km/h) 0 mm0 mm 60000 m 1016.6 hPa
01:48 20.3 °C 17.7 °C 85 % 5 km/h (10 km/h) 0 mm0 mm 60000 m 1016.8 hPa
01:42 20.5 °C 17.9 °C 85 % 7 km/h (10 km/h) 0 mm0 mm 60000 m 1016.7 hPa
01:36 20.6 °C 18 °C 85 % 6 km/h (9 km/h) 0 mm0 mm 60000 m 1016.8 hPa
01:30 20.6 °C 18 °C 85 % 7 km/h (10 km/h) 0 mm0 mm 60000 m 1016.9 hPa
01:24 20.6 °C 18 °C 85 % 9 km/h (12 km/h) 0 mm0 mm 60000 m 1016.8 hPa
01:18 20.6 °C 18 °C 85 % 10 km/h (12 km/h) 0 mm0 mm 60000 m 1016.7 hPa
01:12 20.6 °C 17.8 °C 84 % 9 km/h (12 km/h) 0 mm0 mm 60000 m 1016.7 hPa
01:06 20.7 °C 17.7 °C 83 % 8 km/h (12 km/h) 0 mm0 mm 60000 m 1016.7 hPa
01:00 20.8 °C 17.8 °C 83 % 5 km/h (9 km/h) 0 mm0 mm 60000 m 1016.7 hPa
00:54 20.8 °C 17.6 °C 82 % 6 km/h (8 km/h) 0 mm0 mm 60000 m 1016.6 hPa
00:48 20.9 °C 17.3 °C 80 % 7 km/h (9 km/h) 0 mm0 mm 60000 m 1016.4 hPa
00:42 21.1 °C 17.5 °C 80 % 8 km/h (9 km/h) 0 mm0 mm 60000 m 1016.5 hPa
00:36 21.2 °C 17.4 °C 79 % 8 km/h (9 km/h) 0 mm0 mm 60000 m 1016.4 hPa
00:30 21.5 °C 17.7 °C 79 % 7 km/h (9 km/h) 0 mm0 mm 60000 m 1016.4 hPa
00:24 21.6 °C 17.8 °C 79 % 6 km/h (9 km/h) 0 mm0 mm 60000 m 1016.4 hPa
00:18 21.5 °C 17.5 °C 78 % 8 km/h (11 km/h) 0 mm0 mm 60000 m 1016.4 hPa
00:12 21.7 °C 17.5 °C 77 % 8 km/h (11 km/h) 0 mm0 mm 60000 m 1016.4 hPa
00:06 22.3 °C 17.9 °C 76 % 7 km/h (10 km/h) 0 mm0 mm 60000 m 1016.3 hPa
00:00 22.6 °C 17.9 °C 75 % 8 km/h (11 km/h) 0 mm0 mm 60000 m 1016.3 hPa

Données via Météo-France

Relevés météo à Nimes-Garons

Cette page rassemble les observations de la station de Nimes-Garons : température, humidité, vent, précipitations et pression atmosphérique. Les graphiques facilitent le suivi de la journée, tandis que le tableau donne accès aux mesures horaires et infra-horaires disponibles.

Pour replacer ces mesures dans leur contexte, consultez la climatologie de Nimes-Garons ainsi que ses normales et records. Retrouvez aussi la carte des observations météo en temps réel.